Latest Coastal Weather Observations for Bedout Island

IDW60701

Issued at 12:41 pm WST Thursday 5 May 2016 (issued every 10 minutes, with the page automatically refreshed every 10 minutes)

About coastal observations | Map of coastal stations | Coastal observations for WA | Marine services | Other Formats
Station Details ID: 004100 Name: BEDOUT ISLAND Lat: -19.59 Lon: 119.10 Height: 8.6 m
Data from the previous 72 hours. | See also: Recent months at Bedout Island
Date/Time
WST
Temp

°C
Wind Pressure Rain
since 9am
mm
Weather Cloud Vis
km
Sea
Height
m
Swell
Dir
 
Speed
knots
Gust
knots
hPa Trend Height
m
Period
s
Dir
05/12:30pm 30.4 W 5 6 1010.1 - - - - - - - - -
05/12:00pm 30.8 W 5 6 1010.5 - - - - - - - - -
05/11:30am 31.2 W 5 6 1010.9 - - - - - - - - -
05/11:00am 32.7 W 5 7 1011.2 - - - - - - - - -
05/10:30am 31.9 W 5 6 1011.4 - - - - - - - - -
05/10:00am 31.4 W 3 4 1011.9 - - - - - - - - -
05/09:30am 32.0 W 4 5 1012.0 - - - - - - - - -
05/09:00am 30.3 W 5 6 1012.2 - - - - - - - - -
05/08:30am 29.6 W 5 5 1011.9 - - - - - - - - -
05/08:00am 29.3 W 2 4 1011.4 - - - - - - - - -
05/07:30am 28.7 W 3 4 1011.0 - - - - - - - - -
05/07:00am 28.0 W 5 6 1010.9 - - - - - - - - -
05/06:30am 27.7 W 5 7 1010.6 - - - - - - - - -
05/06:00am 27.4 W 4 5 1010.0 - - - - - - - - -
05/05:00am 27.3 W 8 9 1009.8 - - - - - - - - -
05/04:30am 27.4 W 5 6 1009.9 - - - - - - - - -
05/04:00am 27.9 W 8 9 1009.9 - - - - - - - - -
05/03:30am 27.9 W 9 10 1009.9 - - - - - - - - -
05/03:00am 28.0 W 10 11 1009.9 - - - - - - - - -
05/02:30am 28.2 W 11 13 1010.2 - - - - - - - - -
05/02:00am 28.2 W 12 13 1010.4 - - - - - - - - -
05/01:30am 28.0 W 12 13 1010.4 - - - - - - - - -
05/01:00am 28.4 W 13 15 1010.6 - - - - - - - - -
05/12:30am 28.2 W 14 15 1010.4 - - - - - - - - -
 
Date/Time
WST
Temp

°C
Wind Pressure Rain
since 9am
mm
Weather Cloud Vis
km
Sea
Height
m
Swell
Dir
 
Speed
knots
Gust
knots
hPa Trend Height
m
Period
s
Dir
04/11:30pm 28.4 W 14 16 1010.9 - - - - - - - - -
04/11:00pm 28.3 W 14 16 1011.1 - - - - - - - - -
04/10:30pm 28.4 W 15 17 1011.3 - - - - - - - - -
04/10:00pm 28.5 W 15 17 1011.3 - - - - - - - - -
04/09:30pm 28.6 E 14 16 1011.3 - - - - - - - - -
04/09:00pm 28.6 E 15 17 1011.2 - - - - - - - - -
04/08:30pm 28.9 E 14 16 1011.2 - - - - - - - - -
04/08:00pm 28.6 E 12 13 1010.8 - - - - - - - - -
04/07:30pm 28.8 E 12 13 1010.5 - - - - - - - - -
04/07:00pm 28.7 E 11 11 1010.2 - - - - - - - - -
04/06:30pm 28.7 E 10 11 1010.0 - - - - - - - - -
04/06:00pm 28.7 E 9 10 1009.7 - - - - - - - - -
04/05:30pm 28.8 E 8 8 1009.2 - - - - - - - - -
04/05:00pm 29.2 E 6 7 1009.0 - - - - - - - - -
04/04:30pm 29.3 E 6 7 1008.8 - - - - - - - - -
04/04:00pm 29.9 E 7 8 1008.9 - - - - - - - - -
04/03:30pm 30.1 E 5 6 1008.7 - - - - - - - - -
04/03:00pm 30.1 E 5 6 1008.6 - - - - - - - - -
04/02:30pm 30.7 E 5 7 1009.0 - - - - - - - - -
04/02:00pm 31.0 E 5 7 1009.2 - - - - - - - - -
04/01:30pm 31.3 E 5 6 1009.4 - - - - - - - - -
04/01:00pm 31.0 E 5 6 1009.7 - - - - - - - - -
04/12:30pm 31.4 E 5 7 1010.1 - - - - - - - - -
04/12:00pm 31.0 E 6 7 1010.4 - - - - - - - - -
04/11:30am 31.7 E 6 7 1010.8 - - - - - - - - -
04/11:00am 31.0 E 5 7 1011.3 - - - - - - - - -
04/10:30am 31.1 E 5 7 1011.8 - - - - - - - - -
04/10:00am 31.4 E 6 7 1012.1 - - - - - - - - -
04/09:30am 30.9 E 6 7 1012.2 - - - - - - - - -
04/09:00am 30.8 E 6 7 1012.0 - - - - - - - - -
04/08:30am 30.1 E 6 8 1011.9 - - - - - - - - -
04/08:00am 29.7 E 7 9 1011.6 - - - - - - - - -
04/07:30am 28.6 E 8 9 1011.5 - - - - - - - - -
04/07:00am 27.5 E 9 11 1011.4 - - - - - - - - -
04/06:30am 27.1 E 10 14 1011.2 - - - - - - - - -
04/06:00am 27.0 E 12 14 1010.8 - - - - - - - - -
04/05:30am 27.1 E 12 14 1010.8 - - - - - - - - -
04/05:00am 26.8 E 12 14 1010.7 - - - - - - - - -
04/04:30am 27.0 E 12 14 1010.7 - - - - - - - - -
04/04:00am 27.7 E 12 13 1010.8 - - - - - - - - -
04/03:30am 27.9 E 13 15 1010.6 - - - - - - - - -
04/03:00am 27.7 E 12 13 1010.3 - - - - - - - - -
04/02:30am 27.9 E 13 15 1010.4 - - - - - - - - -
04/02:00am 27.8 E 13 14 1010.4 - - - - - - - - -
04/01:30am 27.9 E 12 14 1010.4 - - - - - - - - -
04/01:00am 27.8 E 11 13 1010.6 - - - - - - - - -
04/12:30am 28.0 E 11 12 1011.0 - - - - - - - - -
04/12:00am 27.9 E 10 11 1011.0 - - - - - - - - -
 
Date/Time
WST
Temp

°C
Wind Pressure Rain
since 9am
mm
Weather Cloud Vis
km
Sea
Height
m
Swell
Dir
 
Speed
knots
Gust
knots
hPa Trend Height
m
Period
s
Dir
03/11:30pm 27.9 E 9 11 1011.1 - - - - - - - - -
03/11:00pm 27.7 E 8 9 1011.2 - - - - - - - - -
03/10:30pm 27.8 E 9 9 1011.2 - - - - - - - - -
03/09:30pm 27.9 E 8 10 1011.6 - - - - - - - - -
03/09:00pm 28.0 E 9 11 1011.4 - - - - - - - - -
03/08:30pm 28.1 E 9 10 1011.5 - - - - - - - - -
03/07:30pm 28.2 E 9 11 1011.2 - - - - - - - - -
03/07:00pm 28.2 E 9 10 1011.0 - - - - - - - - -
03/06:30pm 28.3 E 8 9 1010.8 - - - - - - - - -
03/06:00pm 28.4 E 7 9 1010.4 - - - - - - - - -
03/05:30pm 29.0 E 6 8 1010.3 - - - - - - - - -
03/05:00pm 30.0 E 7 8 1010.1 - - - - - - - - -
03/04:30pm 31.3 E 6 7 1009.8 - - - - - - - - -
03/04:00pm 31.3 E 7 9 1009.8 - - - - - - - - -
03/03:30pm 31.5 E 8 9 1009.7 - - - - - - - - -
03/03:00pm 31.6 E 10 11 1009.6 - - - - - - - - -
03/02:30pm 31.9 E 10 12 1009.7 - - - - - - - - -
03/02:00pm 32.1 E 11 13 1009.8 - - - - - - - - -
03/01:30pm 32.2 E 11 12 1010.2 - - - - - - - - -
03/12:30pm 32.1 E 11 14 1011.0 - - - - - - - - -
03/12:00pm 32.2 E 13 - 1011.2 - - - - - - - - -
03/11:30am 31.9 E 14 16 1011.7 - - - - - - - - -
03/11:00am 31.7 E 15 18 1012.0 - - - - - - - - -
03/10:30am 31.4 E 17 19 1012.4 - - - - - - - - -
03/10:00am 31.2 E 17 19 1012.8 - - - - - - - - -
03/09:30am 31.3 E 17 20 1012.8 - - - - - - - - -
03/09:00am 31.0 ESE 16 19 1012.7 - - - - - - - - -
03/08:30am 30.8 ESE 15 19 1012.7 - - - - - - - - -
03/07:30am 30.0 ESE 16 19 1012.4 - - - - - - - - -
03/07:00am 29.5 S 16 18 1012.1 - - - - - - - - -
03/06:30am 29.0 S 14 16 1011.9 - - - - - - - - -
03/06:00am 27.9 S 13 14 1011.5 - - - - - - - - -
03/05:30am 28.5 S 12 14 1011.5 - - - - - - - - -
03/05:00am 27.3 S 8 11 1011.5 - - - - - - - - -
03/04:30am 27.2 S 9 11 1011.5 - - - - - - - - -
03/04:00am 27.3 S 11 15 1011.1 - - - - - - - - -
03/03:30am 27.2 S 14 16 1011.1 - - - - - - - - -
03/03:00am 27.3 S 13 16 1011.0 - - - - - - - - -
03/02:30am 27.4 S 12 13 1011.3 - - - - - - - - -
03/02:00am 27.7 S 11 13 1011.7 - - - - - - - - -
03/01:30am 27.8 S 11 13 1011.8 - - - - - - - - -
03/01:00am 27.8 S 10 12 1012.0 - - - - - - - - -
03/12:30am 28.0 SSW 11 14 1012.3 - - - - - - - - -
03/12:00am 27.9 SSW 12 13 1012.2 - - - - - - - - -
 
Date/Time
WST
Temp

°C
Wind Pressure Rain
since 9am
mm
Weather Cloud Vis
km
Sea
Height
m
Swell
Dir
 
Speed
knots
Gust
knots
hPa Trend Height
m
Period
s
Dir
02/11:30pm 27.9 W 11 12 1012.4 - - - - - - - - -
02/11:00pm 27.9 W 13 14 1012.2 - - - - - - - - -
02/10:30pm 28.0 W 13 15 1012.1 - - - - - - - - -
02/10:00pm 27.9 W 13 14 1012.1 - - - - - - - - -
02/09:30pm 28.0 W 14 15 1012.2 - - - - - - - - -
02/09:00pm 28.0 W 13 15 1012.0 - - - - - - - - -
02/08:30pm 28.1 W 13 14 1012.1 - - - - - - - - -
02/08:00pm 28.2 W 13 14 1012.0 - - - - - - - - -
02/07:30pm 28.3 WSW 13 15 1012.1 - - - - - - - - -
02/07:00pm 28.4 S 11 12 1011.7 - - - - - - - - -
02/06:30pm 28.4 S 12 13 1011.5 - - - - - - - - -
02/05:30pm 28.8 S 12 14 1011.2 - - - - - - - - -
02/05:00pm 29.2 S 12 13 1011.0 - - - - - - - - -
02/04:30pm 30.3 S 11 13 1010.8 - - - - - - - - -
02/04:00pm 30.6 S 10 11 1010.8 - - - - - - - - -
02/03:30pm 31.3 S 10 11 1010.7 - - - - - - - - -
02/03:00pm 31.3 S 10 11 1010.5 - - - - - - - - -
02/02:30pm 31.2 S 8 10 1010.7 - - - - - - - - -
02/02:00pm 31.7 S 8 10 1011.0 - - - - - - - - -
02/01:30pm 31.4 S 8 10 1011.5 - - - - - - - - -
02/01:00pm 31.6 S 9 11 1012.0 - - - - - - - - -

Other Formats:

Comma delimited format used in spreadsheet applications
http://www.bom.gov.au/fwo/IDW60701/IDW60701.94310.axf

JavaScript Object Notation format (JSON) in row-major order
http://www.bom.gov.au/fwo/IDW60701/IDW60701.94310.json